Time;durP1;ratioP1;P1;durP2;ratioP2;P2;SDS_P1;SDS_P2;PMS_P1;PMS_P2;Temp;Humidity;BMP_temperature;BMP_pressure;BME280_temperature;BME280_humidity;BME280_pressure;Samples;Min_cycle;Max_cycle;Signal;HPM_P1;HPM_P2
2022/10/17 00:02:11;;;;;;;;;;;;;;;22.36;62.03;98396.25;617356;230;64362;-77
2022/10/17 00:04:38;;;;;;;;;;;;;;;22.36;62.29;98404.28;617407;230;65131;-77
2022/10/17 00:07:05;;;;;;;;;;;;;;;22.36;61.50;98414.19;617411;230;64652;-77
2022/10/17 00:09:33;;;;;;;;;;;;;;;22.36;62.08;98417.67;617372;230;64150;-77
2022/10/17 00:12:01;;;;;;;;;;;;;;;22.36;62.26;98412.31;617361;230;65158;-76
2022/10/17 00:14:29;;;;;;;;;;;;;;;22.34;63.01;98414.45;617375;230;64452;-77
2022/10/17 00:16:56;;;;;;;;;;;;;;;22.34;62.22;98409.09;617389;230;64203;-77
2022/10/17 00:19:24;;;;;;;;;;;;;;;22.33;61.62;98415.49;617405;230;62881;-77
2022/10/17 00:21:51;;;;;;;;;;;;;;;22.33;61.97;98415.49;617338;230;62470;-77
2022/10/17 00:24:19;;;;;;;;;;;;;;;22.33;61.17;98418.17;617357;230;65568;-77
2022/10/17 00:26:46;;;;;;;;;;;;;;;22.32;62.59;98416.56;617377;230;64929;-77
2022/10/17 00:29:14;;;;;;;;;;;;;;;22.32;62.30;98421.91;617358;230;64614;-77
2022/10/17 00:31:41;;;;;;;;;;;;;;;22.31;60.96;98414.92;617942;229;64169;-77
2022/10/17 00:34:09;;;;;;;;;;;;;;;22.31;61.89;98417.59;619508;229;64965;-77
2022/10/17 00:36:36;;;;;;;;;;;;;;;22.31;61.99;98417.59;619434;229;64511;-77
2022/10/17 00:39:04;;;;;;;;;;;;;;;22.29;62.03;98414.38;619494;229;62065;-77
2022/10/17 00:41:33;;;;;;;;;;;;;;;22.30;61.87;98417.86;619479;229;65731;-77
2022/10/17 00:44:07;;;;;;;;;;;;;;;22.30;61.49;98417.86;619425;229;42322;-77
2022/10/17 00:46:36;;;;;;;;;;;;;;;22.29;62.36;98422.41;619481;229;64427;-77
2022/10/17 00:49:07;;;;;;;;;;;;;;;22.29;62.51;98425.09;619431;229;65085;-77
2022/10/17 00:51:49;;;;;;;;;;;;;;;22.28;61.76;98420.77;619472;229;62257;-77
2022/10/17 00:54:18;;;;;;;;;;;;;;;22.28;61.88;98418.09;619278;229;64275;-77
2022/10/17 00:56:47;;;;;;;;;;;;;;;22.27;60.66;98418.35;619461;229;62717;-76
2022/10/17 00:59:15;;;;;;;;;;;;;;;22.28;62.18;98414.61;619516;229;64470;-76
2022/10/17 01:01:44;;;;;;;;;;;;;;;22.26;60.94;98420.23;619484;229;62154;-68
2022/10/17 01:04:13;;;;;;;;;;;;;;;22.26;61.68;98420.23;619369;229;62582;-68
2022/10/17 01:06:40;;;;;;;;;;;;;;;22.26;62.15;98414.87;619482;229;64514;-68
2022/10/17 01:09:08;;;;;;;;;;;;;;;22.25;62.33;98415.91;619501;229;64163;-68
2022/10/17 01:11:37;;;;;;;;;;;;;;;22.24;61.03;98419.66;619459;229;64850;-68
2022/10/17 01:14:09;;;;;;;;;;;;;;;22.24;60.91;98419.66;619486;229;64736;-68
2022/10/17 01:16:47;;;;;;;;;;;;;;;22.24;61.98;98416.97;619503;229;41484;-69
2022/10/17 01:19:26;;;;;;;;;;;;;;;22.23;62.18;98417.20;619466;229;62849;-69
2022/10/17 01:22:01;;;;;;;;;;;;;;;22.23;62.60;98419.88;619455;229;63298;-68
2022/10/17 01:24:39;;;;;;;;;;;;;;;22.22;63.91;98419.08;619441;229;64146;-68
2022/10/17 01:27:27;;;;;;;;;;;;;;;22.21;63.47;98420.14;619113;229;65000;-68
2022/10/17 01:30:13;;;;;;;;;;;;;;;22.21;62.71;98417.47;619473;229;61749;-68
2022/10/17 01:32:42;;;;;;;;;;;;;;;22.21;62.27;98419.31;619458;227;62245;-68
2022/10/17 01:35:17;;;;;;;;;;;;;;;22.19;61.61;98416.09;619203;229;65120;-68
2022/10/17 01:37:57;;;;;;;;;;;;;;;22.19;61.01;98418.77;619428;229;67057;-69
2022/10/17 01:40:29;;;;;;;;;;;;;;;22.19;62.38;98418.77;619462;229;64415;-69
2022/10/17 01:42:59;;;;;;;;;;;;;;;22.18;64.26;98412.61;619445;229;66013;-70
2022/10/17 01:45:28;;;;;;;;;;;;;;;22.17;63.10;98424.32;619141;229;64462;-69
2022/10/17 01:47:59;;;;;;;;;;;;;;;22.17;62.90;98418.97;619459;229;62065;-69
2022/10/17 01:50:34;;;;;;;;;;;;;;;22.15;62.10;98419.23;619456;229;62736;-70
2022/10/17 01:53:06;;;;;;;;;;;;;;;22.16;62.60;98425.39;619483;229;62214;-70
2022/10/17 01:55:35;;;;;;;;;;;;;;;22.16;63.97;98412.80;619416;229;64135;-70
2022/10/17 01:58:04;;;;;;;;;;;;;;;22.16;64.75;98426.19;619127;229;62816;-70
2022/10/17 02:00:32;;;;;;;;;;;;;;;22.15;62.92;98421.06;619397;229;64499;-69
2022/10/17 02:03:01;;;;;;;;;;;;;;;22.14;63.25;98419.45;619518;229;64221;-68
2022/10/17 02:05:30;;;;;;;;;;;;;;;22.14;61.77;98422.14;619464;229;62406;-69
2022/10/17 02:07:58;;;;;;;;;;;;;;;22.13;63.58;98423.20;619461;229;62166;-68
2022/10/17 02:10:27;;;;;;;;;;;;;;;22.13;63.83;98425.88;619434;229;64177;-68
2022/10/17 02:12:56;;;;;;;;;;;;;;;22.13;64.33;98425.88;610300;229;65138;-68
2022/10/17 02:15:26;;;;;;;;;;;;;;;22.12;63.58;98430.40;619443;229;65005;-68
2022/10/17 02:18:12;;;;;;;;;;;;;;;22.13;63.83;98428.55;619493;229;61666;-68
2022/10/17 02:20:47;;;;;;;;;;;;;;;22.12;64.37;98433.08;619446;229;62838;-68
2022/10/17 02:23:20;;;;;;;;;;;;;;;22.11;64.15;98436.02;619074;229;62246;-67
2022/10/17 02:25:50;;;;;;;;;;;;;;;22.11;64.29;98436.02;619492;229;64350;-68
2022/10/17 02:28:22;;;;;;;;;;;;;;;22.09;62.66;98443.47;618562;229;64837;-68
2022/10/17 02:30:54;;;;;;;;;;;;;;;22.09;62.69;98443.47;619309;229;62279;-68
2022/10/17 02:33:29;;;;;;;;;;;;;;;22.09;63.84;98446.95;619468;229;64223;-68
2022/10/17 02:35:58;;;;;;;;;;;;;;;22.10;65.59;98450.47;619477;229;64882;-77
2022/10/17 02:38:28;;;;;;;;;;;;;;;22.09;64.88;98446.14;619460;229;63860;-77
2022/10/17 02:40:56;;;;;;;;;;;;;;;22.08;63.89;98457.92;619473;229;64340;-77
2022/10/17 02:43:24;;;;;;;;;;;;;;;22.08;64.23;98465.95;619417;229;62701;-77
2022/10/17 02:45:53;;;;;;;;;;;;;;;22.07;64.08;98459.80;619430;229;65505;-77
2022/10/17 02:48:25;;;;;;;;;;;;;;;22.07;63.61;98466.98;619412;229;63184;-77
2022/10/17 02:50:54;;;;;;;;;;;;;;;22.07;65.83;98467.83;619400;229;64869;-77
2022/10/17 02:53:23;;;;;;;;;;;;;;;22.05;63.22;98469.13;619376;229;65490;-76
2022/10/17 02:55:53;;;;;;;;;;;;;;;22.05;64.23;98472.60;619096;229;65647;-77
2022/10/17 02:58:22;;;;;;;;;;;;;;;22.05;64.81;98463.77;619269;229;62825;-68
2022/10/17 03:00:50;;;;;;;;;;;;;;;22.05;64.64;98475.28;619437;229;62904;-68
2022/10/17 03:03:19;;;;;;;;;;;;;;;22.04;61.86;98478.98;619408;229;64947;-68
2022/10/17 03:05:47;;;;;;;;;;;;;;;22.05;63.76;98477.16;619381;229;62743;-68
2022/10/17 03:08:14;;;;;;;;;;;;;;;22.03;64.36;98477.37;619430;229;63130;-77
2022/10/17 03:10:42;;;;;;;;;;;;;;;22.03;64.68;98476.57;619410;229;64806;-77
2022/10/17 03:13:10;;;;;;;;;;;;;;;22.02;64.50;98477.64;619478;229;65633;-77
2022/10/17 03:15:38;;;;;;;;;;;;;;;22.02;62.63;98477.64;619419;229;62701;-77
2022/10/17 03:18:06;;;;;;;;;;;;;;;22.02;63.65;98483.80;619391;229;65951;-77
2022/10/17 03:20:34;;;;;;;;;;;;;;;22.02;62.83;98480.31;619432;229;65084;-69
2022/10/17 03:23:01;;;;;;;;;;;;;;;22.02;63.91;98480.31;619404;229;63038;-68
2022/10/17 03:25:29;;;;;;;;;;;;;;;22.01;65.06;98473.31;619431;229;66161;-69
2022/10/17 03:27:59;;;;;;;;;;;;;;;22.01;64.78;98473.31;619462;229;62427;-68
2022/10/17 03:30:27;;;;;;;;;;;;;;;22.01;65.71;98476.00;619383;229;65514;-68
2022/10/17 03:32:55;;;;;;;;;;;;;;;22.00;64.27;98477.06;617772;229;65199;-77
2022/10/17 03:35:22;;;;;;;;;;;;;;;21.99;64.73;98475.42;617310;230;64877;-77
2022/10/17 03:37:50;;;;;;;;;;;;;;;21.99;63.88;98478.93;617291;230;62429;-77
2022/10/17 03:40:19;;;;;;;;;;;;;;;21.98;63.04;98481.84;617349;230;65494;-77
2022/10/17 03:42:48;;;;;;;;;;;;;;;21.99;64.47;98476.25;617275;230;62355;-77
2022/10/17 03:45:16;;;;;;;;;;;;;;;21.98;65.41;98479.97;617293;230;66154;-77
2022/10/17 03:47:44;;;;;;;;;;;;;;;21.97;65.16;98475.67;610140;230;67005;-77
2022/10/17 03:50:11;;;;;;;;;;;;;;;21.97;64.36;98488.25;617282;230;63691;-77
2022/10/17 03:52:39;;;;;;;;;;;;;;;21.97;65.18;98488.25;617358;230;65697;-77
2022/10/17 03:55:07;;;;;;;;;;;;;;;21.95;64.35;98483.13;617304;230;65141;-78
2022/10/17 03:57:35;;;;;;;;;;;;;;;21.95;65.49;98491.16;617286;230;62750;-77
2022/10/17 04:00:05;;;;;;;;;;;;;;;21.95;63.39;98497.31;617349;230;63373;-77
2022/10/17 04:02:34;;;;;;;;;;;;;;;21.94;64.77;98495.70;617010;230;42684;-79
2022/10/17 04:05:02;;;;;;;;;;;;;;;21.94;64.18;98497.58;617309;230;62904;-77
2022/10/17 04:07:29;;;;;;;;;;;;;;;21.94;65.04;98502.93;617284;230;66072;-77
2022/10/17 04:10:04;;;;;;;;;;;;;;;21.94;65.70;98505.61;617307;230;63060;-77
2022/10/17 04:12:29;;;;;;;;;;;;;;;21.93;64.95;98494.09;617068;230;65043;-78
2022/10/17 04:14:56;;;;;;;;;;;;;;;21.93;64.17;98498.61;617295;230;65623;-77
2022/10/17 04:17:25;;;;;;;;;;;;;;;21.91;61.02;98501.55;617255;230;65624;-77
2022/10/17 04:19:53;;;;;;;;;;;;;;;21.91;63.62;98500.73;617333;230;65871;-79
2022/10/17 04:22:22;;;;;;;;;;;;;;;21.91;63.58;98501.55;617189;230;66506;-78
2022/10/17 04:24:50;;;;;;;;;;;;;;;21.91;65.17;98503.41;617305;227;64789;-77
2022/10/17 04:27:28;;;;;;;;;;;;;;;21.89;64.52;98503.64;606311;230;45009;-77
2022/10/17 04:29:56;;;;;;;;;;;;;;;21.89;64.13;98511.67;617302;230;63015;-78
2022/10/17 04:32:24;;;;;;;;;;;;;;;21.89;64.82;98506.32;618376;229;66004;-77
2022/10/17 04:34:54;;;;;;;;;;;;;;;21.89;64.39;98509.00;619117;229;47595;-78
2022/10/17 04:37:22;;;;;;;;;;;;;;;21.88;63.94;98506.55;619411;229;66014;-78
2022/10/17 04:39:51;;;;;;;;;;;;;;;21.87;63.34;98511.09;619418;229;62722;-78
2022/10/17 04:42:18;;;;;;;;;;;;;;;21.87;62.87;98515.64;619383;229;65014;-78
2022/10/17 04:44:46;;;;;;;;;;;;;;;21.87;64.08;98520.99;619430;229;65496;-78
2022/10/17 04:47:14;;;;;;;;;;;;;;;21.86;63.08;98520.19;619414;229;62535;-78
2022/10/17 04:49:42;;;;;;;;;;;;;;;21.86;63.25;98522.86;619427;229;65602;-78
2022/10/17 04:52:10;;;;;;;;;;;;;;;21.86;64.20;98530.89;619191;229;65670;-78
2022/10/17 04:54:40;;;;;;;;;;;;;;;21.86;64.26;98525.54;619353;229;44051;-78
2022/10/17 04:57:09;;;;;;;;;;;;;;;21.85;63.27;98526.60;619393;229;62856;-78
2022/10/17 04:59:37;;;;;;;;;;;;;;;21.85;62.99;98529.28;619387;229;63370;-78
2022/10/17 05:02:24;;;;;;;;;;;;;;;21.84;65.51;98527.63;619324;229;43979;-77
2022/10/17 05:04:51;;;;;;;;;;;;;;;21.84;64.46;98532.98;619381;229;64973;-77
2022/10/17 05:07:19;;;;;;;;;;;;;;;21.83;64.12;98528.70;619133;226;62690;-77
2022/10/17 05:09:49;;;;;;;;;;;;;;;21.82;63.90;98540.44;618118;229;45100;-77
2022/10/17 05:12:16;;;;;;;;;;;;;;;21.83;64.91;98536.73;619416;229;65608;-77
2022/10/17 05:14:45;;;;;;;;;;;;;;;21.81;61.60;98538.82;619446;229;63937;-77
2022/10/17 05:17:13;;;;;;;;;;;;;;;21.81;63.18;98544.17;619399;229;65686;-77
2022/10/17 05:19:40;;;;;;;;;;;;;;;21.81;64.07;98544.17;619398;229;64893;-77
2022/10/17 05:22:08;;;;;;;;;;;;;;;21.81;63.47;98554.88;619315;229;65472;-77
2022/10/17 05:24:36;;;;;;;;;;;;;;;21.80;64.17;98547.08;619448;229;65011;-77
2022/10/17 05:27:03;;;;;;;;;;;;;;;21.80;63.81;98547.08;619392;229;64943;-77
2022/10/17 05:29:31;;;;;;;;;;;;;;;21.79;63.20;98554.30;619411;229;63862;-77
2022/10/17 05:32:04;;;;;;;;;;;;;;;21.79;63.24;98551.62;619183;229;42192;-77
2022/10/17 05:34:34;;;;;;;;;;;;;;;21.80;63.24;98555.10;619353;229;62798;-77
2022/10/17 05:37:01;;;;;;;;;;;;;;;21.78;62.80;98554.55;619452;229;65430;-77
2022/10/17 05:39:29;;;;;;;;;;;;;;;21.79;63.02;98558.84;619350;229;64745;-77
2022/10/17 05:41:56;;;;;;;;;;;;;;;21.79;64.78;98565.00;619417;229;62835;-77
2022/10/17 05:44:24;;;;;;;;;;;;;;;21.77;63.42;98567.13;619298;229;63107;-77
2022/10/17 05:46:53;;;;;;;;;;;;;;;21.77;61.28;98566.28;619219;229;46931;-77
2022/10/17 05:49:21;;;;;;;;;;;;;;;21.76;61.45;98564.67;619144;229;65627;-77
2022/10/17 05:51:49;;;;;;;;;;;;;;;21.76;63.11;98573.51;619465;229;65654;-76
2022/10/17 05:54:17;;;;;;;;;;;;;;;21.77;63.17;98582.34;619427;229;64728;-78
2022/10/17 05:56:45;;;;;;;;;;;;;;;21.77;63.35;98582.34;619278;229;62480;-77
2022/10/17 05:59:13;;;;;;;;;;;;;;;21.77;64.12;98579.67;613196;229;66696;-76
2022/10/17 06:01:51;;;;;;;;;;;;;;;21.76;62.75;98588.76;615363;229;43905;-77
2022/10/17 06:04:19;;;;;;;;;;;;;;;21.74;62.14;98586.30;612475;229;62440;-77
2022/10/17 06:06:47;;;;;;;;;;;;;;;21.73;62.09;98590.85;612406;231;65796;-75
2022/10/17 06:09:15;;;;;;;;;;;;;;;21.72;62.48;98589.23;612452;231;65662;-69
2022/10/17 06:11:44;;;;;;;;;;;;;;;21.72;59.88;98594.59;612336;231;42611;-78
2022/10/17 06:14:13;;;;;;;;;;;;;;;21.73;64.57;98598.87;612349;229;65767;-71
2022/10/17 06:16:42;;;;;;;;;;;;;;;21.72;63.77;98596.45;612446;231;62414;-71
2022/10/17 06:19:10;;;;;;;;;;;;;;;21.71;62.86;98589.46;612444;231;64629;-76
2022/10/17 06:21:38;;;;;;;;;;;;;;;21.70;57.62;98593.20;612398;231;65991;-78
2022/10/17 06:24:07;;;;;;;;;;;;;;;21.68;60.87;98590.75;610701;231;45330;-76
2022/10/17 06:26:37;;;;;;;;;;;;;;;21.67;55.83;98588.33;615320;229;52226;-77
2022/10/17 06:29:06;;;;;;;;;;;;;;;21.70;61.50;98593.20;618736;229;47728;-74
2022/10/17 06:31:35;;;;;;;;;;;;;;;21.71;63.65;98597.48;618361;229;44014;-71
2022/10/17 06:34:02;;;;;;;;;;;;;;;21.69;63.31;98596.94;616652;230;64966;-72
2022/10/17 06:36:30;;;;;;;;;;;;;;;21.68;61.54;98587.27;616585;230;62979;-74
2022/10/17 06:38:58;;;;;;;;;;;;;;;21.70;65.90;98590.52;616799;230;62912;-71
2022/10/17 06:41:36;;;;;;;;;;;;;;;21.70;64.60;98587.84;616556;230;46277;-69
2022/10/17 06:44:09;;;;;;;;;;;;;;;21.71;65.93;98586.78;616968;230;42812;-69
2022/10/17 06:46:52;;;;;;;;;;;;;;;21.70;64.97;98587.84;595514;237;45119;-69
2022/10/17 06:49:21;;;;;;;;;;;;;;;21.71;65.76;98587.59;609810;230;65546;-68
2022/10/17 06:51:53;;;;;;;;;;;;;;;21.70;63.91;98591.33;616685;230;44199;-67
2022/10/17 06:54:22;;;;;;;;;;;;;;;21.71;64.45;98598.30;616407;230;44378;-67
2022/10/17 06:56:51;;;;;;;;;;;;;;;21.72;65.05;98596.45;615729;230;45040;-68
2022/10/17 06:59:24;;;;;;;;;;;;;;;21.73;65.23;98600.75;607680;230;46965;-68
2022/10/17 07:01:53;;;;;;;;;;;;;;;21.74;65.26;98597.01;611810;230;45336;-67
2022/10/17 07:04:22;;;;;;;;;;;;;;;21.75;62.88;98603.20;616943;230;43489;-68
2022/10/17 07:06:50;;;;;;;;;;;;;;;21.75;64.60;98598.66;616866;229;63345;-68
2022/10/17 07:09:19;;;;;;;;;;;;;;;21.76;64.75;98600.27;616835;230;42682;-68
2022/10/17 07:11:47;;;;;;;;;;;;;;;21.75;62.15;98604.00;616856;230;65116;-69
2022/10/17 07:14:16;;;;;;;;;;;;;;;21.78;64.88;98602.72;616772;230;43600;-67
2022/10/17 07:16:44;;;;;;;;;;;;;;;21.77;64.49;98593.05;616736;230;65074;-66
2022/10/17 07:19:16;;;;;;;;;;;;;;;21.79;64.86;98596.30;615010;230;44986;-68
2022/10/17 07:21:44;;;;;;;;;;;;;;;21.79;61.92;98597.11;616296;230;65348;-67
2022/10/17 07:24:12;;;;;;;;;;;;;;;21.80;61.40;98601.44;616543;230;62843;-68
2022/10/17 07:26:41;;;;;;;;;;;;;;;21.82;60.97;98603.86;616898;230;42607;-67
2022/10/17 07:29:09;;;;;;;;;;;;;;;21.84;63.21;98607.92;616810;230;66339;-67
2022/10/17 07:31:47;;;;;;;;;;;;;;;21.84;61.93;98604.44;616789;229;45111;-66
2022/10/17 07:34:15;;;;;;;;;;;;;;;21.86;59.93;98605.02;617677;229;64914;-67
2022/10/17 07:36:44;;;;;;;;;;;;;;;21.87;59.45;98604.77;616932;229;65330;-67
2022/10/17 07:39:13;;;;;;;;;;;;;;;21.88;59.82;98605.58;617500;229;64628;-68
2022/10/17 07:41:40;;;;;;;;;;;;;;;21.89;59.58;98602.67;617532;229;63092;-65
2022/10/17 07:44:08;;;;;;;;;;;;;;;21.92;59.70;98606.73;617347;229;65565;-68
2022/10/17 07:46:38;;;;;;;;;;;;;;;21.93;58.85;98594.97;616428;229;46913;-73
2022/10/17 07:49:05;;;;;;;;;;;;;;;21.95;59.39;98599.03;617579;229;64636;-67
2022/10/17 07:51:33;;;;;;;;;;;;;;;22.01;59.87;98591.91;617588;229;62793;-67
2022/10/17 07:54:01;;;;;;;;;;;;;;;22.01;58.46;98591.11;617634;229;65323;-67
2022/10/17 07:56:28;;;;;;;;;;;;;;;22.02;58.30;98590.08;617709;229;63837;-67
2022/10/17 07:58:57;;;;;;;;;;;;;;;22.02;58.74;98593.55;617523;229;65198;-66
2022/10/17 08:01:24;;;;;;;;;;;;;;;22.03;58.92;98592.49;617526;229;62876;-66
2022/10/17 08:03:52;;;;;;;;;;;;;;;22.04;58.82;98583.39;617667;229;65085;-67
2022/10/17 08:06:19;;;;;;;;;;;;;;;22.05;58.17;98587.72;617559;229;65531;-66
2022/10/17 08:08:47;;;;;;;;;;;;;;;22.06;58.90;98585.84;617211;229;64898;-66
2022/10/17 08:11:15;;;;;;;;;;;;;;;22.07;58.49;98582.11;611504;229;68708;-66
2022/10/17 08:13:42;;;;;;;;;;;;;;;22.08;57.76;98576.53;611507;229;63116;-66
2022/10/17 08:16:11;;;;;;;;;;;;;;;22.08;58.07;98581.88;617670;229;63453;-66
2022/10/17 08:18:40;;;;;;;;;;;;;;;22.09;58.38;98580.81;617606;229;65043;-67
2022/10/17 08:21:08;;;;;;;;;;;;;;;22.12;57.67;98582.20;617639;229;65446;-65
2022/10/17 08:23:36;;;;;;;;;;;;;;;22.13;57.45;98573.14;617680;229;62840;-66
2022/10/17 08:26:07;;;;;;;;;;;;;;;22.14;58.14;98572.08;617599;229;65075;-65
2022/10/17 08:28:35;;;;;;;;;;;;;;;22.14;59.01;98575.56;617517;229;65334;-67
2022/10/17 08:31:04;;;;;;;;;;;;;;;22.15;58.38;98568.33;617649;229;65227;-67
2022/10/17 08:33:32;;;;;;;;;;;;;;;22.16;56.77;98572.66;617606;229;62819;-67
2022/10/17 08:36:00;;;;;;;;;;;;;;;22.18;57.58;98570.59;617596;229;64958;-66
2022/10/17 08:38:29;;;;;;;;;;;;;;;22.19;56.98;98576.75;617646;229;65173;-66
2022/10/17 08:40:58;;;;;;;;;;;;;;;22.20;56.69;98568.45;617615;229;62756;-65
2022/10/17 08:43:33;;;;;;;;;;;;;;;22.22;57.76;98577.07;617639;229;63257;-65
2022/10/17 08:46:02;;;;;;;;;;;;;;;22.23;57.47;98564.48;613759;229;65079;-65
2022/10/17 08:48:31;;;;;;;;;;;;;;;22.24;57.00;98568.81;617629;229;65208;-72
2022/10/17 08:51:00;;;;;;;;;;;;;;;22.25;56.91;98563.20;617648;229;65403;-71
2022/10/17 08:53:38;;;;;;;;;;;;;;;22.27;56.78;98557.61;617628;229;63003;-73
2022/10/17 08:56:07;;;;;;;;;;;;;;;22.28;56.46;98567.26;617639;229;63669;-70
2022/10/17 08:58:36;;;;;;;;;;;;;;;22.30;56.62;98565.97;617442;229;65531;-71
2022/10/17 09:01:08;;;;;;;;;;;;;;;22.31;56.70;98575.61;617694;229;65080;-71
2022/10/17 09:03:43;;;;;;;;;;;;;;;22.33;57.15;98573.52;617735;229;64879;-71
2022/10/17 09:08:59;;;;;;;;;;;;;;;22.35;57.69;98576.77;592815;238;36036;-69
2022/10/17 09:11:41;;;;;;;;;;;;;;;22.36;57.74;98572.22;594450;238;65093;-73
2022/10/17 09:14:15;;;;;;;;;;;;;;;22.37;57.12;98571.16;594649;238;65637;-76
2022/10/17 09:16:45;;;;;;;;;;;;;;;22.37;57.13;98569.31;594864;235;62832;-71
2022/10/17 09:19:14;;;;;;;;;;;;;;;22.38;56.82;98568.24;594631;237;62805;-71
2022/10/17 09:21:48;;;;;;;;;;;;;;;22.40;56.89;98568.02;594691;235;65234;-72
2022/10/17 09:24:17;;;;;;;;;;;;;;;22.41;56.84;98569.63;594512;236;64915;-69
2022/10/17 09:26:46;;;;;;;;;;;;;;;22.43;57.10;98566.72;594657;238;64943;-69
2022/10/17 09:29:23;;;;;;;;;;;;;;;22.44;57.25;98569.14;594584;236;63981;-71
2022/10/17 09:31:53;;;;;;;;;;;;;;;22.45;57.22;98572.62;594558;238;63275;-70
2022/10/17 09:34:21;;;;;;;;;;;;;;;22.46;57.16;98566.23;594867;235;62750;-72
2022/10/17 09:36:49;;;;;;;;;;;;;;;22.47;57.36;98565.16;594583;238;65020;-74
2022/10/17 09:39:18;;;;;;;;;;;;;;;22.48;57.32;98564.09;594540;238;63821;-73
2022/10/17 09:41:54;;;;;;;;;;;;;;;22.48;57.90;98564.09;594651;238;65214;-71
2022/10/17 09:44:23;;;;;;;;;;;;;;;22.49;57.61;98557.70;594613;235;65666;-73
2022/10/17 09:46:52;;;;;;;;;;;;;;;22.49;57.97;98566.55;594592;238;64924;-71
2022/10/17 09:49:21;;;;;;;;;;;;;;;22.50;57.72;98562.80;594661;238;64943;-70
2022/10/17 09:51:49;;;;;;;;;;;;;;;22.51;57.34;98556.41;594683;235;64895;-71
2022/10/17 09:54:21;;;;;;;;;;;;;;;22.52;57.80;98560.70;594669;238;65018;-70
2022/10/17 09:56:59;;;;;;;;;;;;;;;22.53;57.71;98556.95;594654;238;64897;-72
2022/10/17 09:59:37;;;;;;;;;;;;;;;22.53;57.40;98554.27;594584;238;65638;-69
2022/10/17 10:02:06;;;;;;;;;;;;;;;22.55;57.89;98554.05;594607;238;62690;-71
2022/10/17 10:04:34;;;;;;;;;;;;;;;22.55;57.72;98554.05;594821;235;62821;-72
2022/10/17 10:07:03;;;;;;;;;;;;;;;22.55;57.45;98556.72;594138;238;63720;-72
2022/10/17 10:09:31;;;;;;;;;;;;;;;22.55;57.85;98552.17;592792;239;62625;-72
2022/10/17 10:12:00;;;;;;;;;;;;;;;22.57;57.42;98551.94;592743;239;65230;-72
2022/10/17 10:14:35;;;;;;;;;;;;;;;22.58;57.63;98549.00;592800;238;65322;-71
2022/10/17 10:17:07;;;;;;;;;;;;;;;22.59;57.48;98547.16;592827;239;65480;-71
2022/10/17 10:19:36;;;;;;;;;;;;;;;22.59;57.59;98544.48;593613;235;64882;-71
2022/10/17 10:22:05;;;;;;;;;;;;;;;22.58;57.69;98543.64;592649;239;63115;-71
2022/10/17 10:24:32;;;;;;;;;;;;;;;22.60;59.23;98538.86;592793;239;62940;-71
2022/10/17 10:27:01;;;;;;;;;;;;;;;22.60;57.79;98538.05;592809;239;64974;-71
2022/10/17 10:29:33;;;;;;;;;;;;;;;22.60;57.71;98540.73;592849;239;62851;-71
2022/10/17 10:32:11;;;;;;;;;;;;;;;22.61;57.86;98536.98;592830;239;65028;-71
2022/10/17 10:34:41;;;;;;;;;;;;;;;22.61;57.69;98542.34;592718;239;65223;-71
2022/10/17 10:37:28;;;;;;;;;;;;;;;22.63;57.96;98542.92;592783;236;63128;-71
2022/10/17 10:39:59;;;;;;;;;;;;;;;22.62;57.64;98533.27;592720;238;65083;-72
2022/10/17 10:42:28;;;;;;;;;;;;;;;22.62;57.75;98527.91;592580;239;65055;-72
2022/10/17 10:44:56;;;;;;;;;;;;;;;22.64;57.48;98524.97;592806;239;65285;-72
2022/10/17 10:47:25;;;;;;;;;;;;;;;22.63;57.90;98529.52;592737;239;63152;-72
2022/10/17 10:49:54;;;;;;;;;;;;;;;22.64;57.87;98525.77;592711;239;66197;-71
2022/10/17 10:52:32;;;;;;;;;;;;;;;22.64;57.66;98525.77;593573;238;65492;-72
2022/10/17 10:55:01;;;;;;;;;;;;;;;22.65;58.39;98523.93;592633;236;65101;-72
2022/10/17 10:57:30;;;;;;;;;;;;;;;22.65;57.60;98515.89;592885;235;62684;-72
2022/10/17 11:00:05;;;;;;;;;;;;;;;22.65;57.46;98522.05;592855;239;63134;-72
2022/10/17 11:02:37;;;;;;;;;;;;;;;22.66;57.72;98520.18;592875;236;65871;-73
2022/10/17 11:05:22;;;;;;;;;;;;;;;22.66;57.41;98515.63;592772;235;65145;-73
2022/10/17 11:07:55;;;;;;;;;;;;;;;22.67;57.59;98517.27;593132;239;63010;-71
2022/10/17 11:10:26;;;;;;;;;;;;;;;22.67;57.62;98519.95;593594;235;65020;-71
2022/10/17 11:13:10;;;;;;;;;;;;;;;22.68;58.02;98510.04;593601;235;64983;-71
2022/10/17 11:15:40;;;;;;;;;;;;;;;22.67;57.53;98514.59;593578;239;63705;-72
2022/10/17 11:18:08;;;;;;;;;;;;;;;22.68;57.68;98507.36;593494;239;62956;-71
2022/10/17 11:20:58;;;;;;;;;;;;;;;22.67;57.51;98503.88;593522;234;64881;-73
2022/10/17 11:23:30;;;;;;;;;;;;;;;22.68;57.85;98502.80;593402;239;65489;-71
2022/10/17 11:25:59;;;;;;;;;;;;;;;22.68;57.87;98504.68;593546;239;65155;-72
2022/10/17 11:28:29;;;;;;;;;;;;;;;22.67;57.77;98490.47;593560;239;62840;-71
2022/10/17 11:30:59;;;;;;;;;;;;;;;22.69;57.49;98488.34;593543;239;65484;-74
2022/10/17 11:33:31;;;;;;;;;;;;;;;22.69;57.57;98491.02;593643;239;65497;-72
2022/10/17 11:36:00;;;;;;;;;;;;;;;22.69;57.70;98482.98;593560;239;62810;-74
2022/10/17 11:38:32;;;;;;;;;;;;;;;22.70;57.51;98478.42;593476;234;63135;-72
2022/10/17 11:40:59;;;;;;;;;;;;;;;22.70;57.45;98475.74;593684;234;62992;-74
2022/10/17 11:43:28;;;;;;;;;;;;;;;22.68;57.27;98481.36;593550;239;61738;-72
2022/10/17 11:45:58;;;;;;;;;;;;;;;22.69;58.55;98474.13;593585;239;64232;-75
2022/10/17 11:48:27;;;;;;;;;;;;;;;22.68;60.17;98476.01;593708;235;64785;-73
2022/10/17 11:50:56;;;;;;;;;;;;;;;22.67;58.10;98471.72;593695;235;66114;-71
2022/10/17 11:53:25;;;;;;;;;;;;;;;22.67;58.18;98471.72;593525;234;65634;-71
2022/10/17 11:55:54;;;;;;;;;;;;;;;22.68;57.04;98473.33;593542;239;64752;-71
2022/10/17 11:58:29;;;;;;;;;;;;;;;22.69;56.67;98468.77;593510;239;62765;-71
2022/10/17 12:01:01;;;;;;;;;;;;;;;22.71;56.55;98469.34;593523;239;65504;-70
2022/10/17 12:03:47;;;;;;;;;;;;;;;22.72;57.65;98460.23;593462;239;65632;-71
2022/10/17 12:06:16;;;;;;;;;;;;;;;22.72;57.20;98461.05;593448;239;62759;-72
2022/10/17 12:08:46;;;;;;;;;;;;;;;22.72;57.14;98461.05;593476;237;65744;-72
2022/10/17 12:11:27;;;;;;;;;;;;;;;22.74;57.36;98463.48;593486;239;65106;-71
2022/10/17 12:13:55;;;;;;;;;;;;;;;22.74;58.43;98469.66;593487;239;65019;-69
2022/10/17 12:16:24;;;;;;;;;;;;;;;22.74;57.34;98458.94;593583;239;63103;-70
2022/10/17 12:18:53;;;;;;;;;;;;;;;22.75;57.63;98465.94;593519;239;63797;-73
2022/10/17 12:21:21;;;;;;;;;;;;;;;22.75;57.15;98471.30;594582;235;65043;-71
2022/10/17 12:23:52;;;;;;;;;;;;;;;22.77;57.59;98471.03;593441;239;65040;-71
2022/10/17 12:26:28;;;;;;;;;;;;;;;22.77;57.14;98477.20;593518;239;65170;-73
2022/10/17 12:28:56;;;;;;;;;;;;;;;22.77;56.84;98474.52;593405;239;65376;-71
2022/10/17 12:31:25;;;;;;;;;;;;;;;22.78;57.36;98473.48;593538;239;66305;-71
2022/10/17 12:33:54;;;;;;;;;;;;;;;22.79;56.79;98468.92;593531;239;63124;-73
2022/10/17 12:36:24;;;;;;;;;;;;;;;22.79;57.00;98463.56;593518;239;65033;-72
2022/10/17 12:39:03;;;;;;;;;;;;;;;22.80;57.52;98467.85;593574;239;65264;-71
2022/10/17 12:41:43;;;;;;;;;;;;;;;22.80;56.88;98471.34;593480;239;62913;-71
2022/10/17 12:44:15;;;;;;;;;;;;;;;22.80;56.69;98465.17;593537;239;65142;-70
2022/10/17 12:46:47;;;;;;;;;;;;;;;22.80;57.29;98471.34;593644;239;63277;-70
2022/10/17 12:49:33;;;;;;;;;;;;;;;22.80;57.15;98471.34;593500;239;65044;-71
2022/10/17 12:52:20;;;;;;;;;;;;;;;22.80;57.41;98465.98;593541;239;63828;-69
2022/10/17 12:54:49;;;;;;;;;;;;;;;22.82;57.13;98469.23;593565;239;65650;-69
2022/10/17 12:57:36;;;;;;;;;;;;;;;22.81;57.64;98462.25;593498;239;64253;-70
2022/10/17 13:02:44;;;;;;;;;;;;;;;22.82;58.35;98461.19;579630;245;35967;-71
2022/10/17 13:05:13;;;;;;;;;;;;;;;22.81;57.21;98456.90;579524;245;63181;-70
2022/10/17 13:07:42;;;;;;;;;;;;;;;22.82;57.47;98463.06;579561;242;62795;-70
2022/10/17 13:10:20;;;;;;;;;;;;;;;22.81;56.98;98454.22;579479;245;63411;-70